sensor_id;sensor_type;location;lat;lon;timestamp;temperature;humidity
36800;DHT22;22752;51.960;5.886;2023-04-24T00:02:23;10.80;99.90
36800;DHT22;22752;51.960;5.886;2023-04-24T00:04:49;10.80;99.90
36800;DHT22;22752;51.960;5.886;2023-04-24T00:07:15;10.80;99.90
36800;DHT22;22752;51.960;5.886;2023-04-24T00:09:45;10.80;99.90
36800;DHT22;22752;51.960;5.886;2023-04-24T00:12:10;10.80;99.90
36800;DHT22;22752;51.960;5.886;2023-04-24T00:14:36;10.80;99.90
36800;DHT22;22752;51.960;5.886;2023-04-24T00:17:02;10.80;99.90
36800;DHT22;22752;51.960;5.886;2023-04-24T00:19:28;10.80;99.90
36800;DHT22;22752;51.960;5.886;2023-04-24T00:21:54;10.80;99.90
36800;DHT22;22752;51.960;5.886;2023-04-24T00:24:20;10.80;99.90
36800;DHT22;22752;51.960;5.886;2023-04-24T00:26:46;10.80;99.90
36800;DHT22;22752;51.960;5.886;2023-04-24T00:29:12;10.70;99.90
36800;DHT22;22752;51.960;5.886;2023-04-24T00:31:37;10.70;99.90
36800;DHT22;22752;51.960;5.886;2023-04-24T00:34:03;10.70;99.90
36800;DHT22;22752;51.960;5.886;2023-04-24T00:36:30;10.70;99.90
36800;DHT22;22752;51.960;5.886;2023-04-24T00:38:56;10.70;99.90
36800;DHT22;22752;51.960;5.886;2023-04-24T00:41:22;10.70;99.90
36800;DHT22;22752;51.960;5.886;2023-04-24T00:43:48;10.60;99.90
36800;DHT22;22752;51.960;5.886;2023-04-24T00:46:14;10.70;99.90
36800;DHT22;22752;51.960;5.886;2023-04-24T00:48:41;10.70;99.90
36800;DHT22;22752;51.960;5.886;2023-04-24T00:51:06;10.60;99.90
36800;DHT22;22752;51.960;5.886;2023-04-24T00:53:32;10.60;99.90
36800;DHT22;22752;51.960;5.886;2023-04-24T00:55:58;10.60;99.90
36800;DHT22;22752;51.960;5.886;2023-04-24T00:58:25;10.60;99.90
36800;DHT22;22752;51.960;5.886;2023-04-24T01:00:52;10.60;99.90
36800;DHT22;22752;51.960;5.886;2023-04-24T01:03:25;10.60;99.90
36800;DHT22;22752;51.960;5.886;2023-04-24T01:05:52;10.60;99.90
36800;DHT22;22752;51.960;5.886;2023-04-24T01:08:18;10.50;99.90
36800;DHT22;22752;51.960;5.886;2023-04-24T01:10:44;10.50;99.90
36800;DHT22;22752;51.960;5.886;2023-04-24T01:13:11;10.60;99.90
36800;DHT22;22752;51.960;5.886;2023-04-24T01:15:37;10.60;99.90
36800;DHT22;22752;51.960;5.886;2023-04-24T01:18:03;10.60;99.90
36800;DHT22;22752;51.960;5.886;2023-04-24T01:20:29;10.60;99.90
36800;DHT22;22752;51.960;5.886;2023-04-24T01:22:55;10.60;99.90
36800;DHT22;22752;51.960;5.886;2023-04-24T01:25:22;10.60;99.90
36800;DHT22;22752;51.960;5.886;2023-04-24T01:27:48;10.60;99.90
36800;DHT22;22752;51.960;5.886;2023-04-24T01:30:14;10.60;99.90
36800;DHT22;22752;51.960;5.886;2023-04-24T01:32:41;10.70;99.90
36800;DHT22;22752;51.960;5.886;2023-04-24T01:35:10;10.70;99.90
36800;DHT22;22752;51.960;5.886;2023-04-24T01:37:36;10.70;99.90
36800;DHT22;22752;51.960;5.886;2023-04-24T01:40:06;10.70;99.90
36800;DHT22;22752;51.960;5.886;2023-04-24T01:42:32;10.70;99.90
36800;DHT22;22752;51.960;5.886;2023-04-24T01:44:59;10.70;99.90
36800;DHT22;22752;51.960;5.886;2023-04-24T01:47:25;10.70;99.90
36800;DHT22;22752;51.960;5.886;2023-04-24T01:49:51;10.70;99.90
36800;DHT22;22752;51.960;5.886;2023-04-24T01:52:17;10.70;99.90
36800;DHT22;22752;51.960;5.886;2023-04-24T01:54:44;10.70;99.90
36800;DHT22;22752;51.960;5.886;2023-04-24T01:57:10;10.70;99.90
36800;DHT22;22752;51.960;5.886;2023-04-24T01:59:35;10.70;99.90
36800;DHT22;22752;51.960;5.886;2023-04-24T02:02:02;10.70;99.90
36800;DHT22;22752;51.960;5.886;2023-04-24T02:04:28;10.70;99.90
36800;DHT22;22752;51.960;5.886;2023-04-24T02:06:54;10.70;99.90
36800;DHT22;22752;51.960;5.886;2023-04-24T02:09:20;10.70;99.90
36800;DHT22;22752;51.960;5.886;2023-04-24T02:11:46;10.70;99.90
36800;DHT22;22752;51.960;5.886;2023-04-24T02:14:11;10.70;99.90
36800;DHT22;22752;51.960;5.886;2023-04-24T02:16:37;10.70;99.90
36800;DHT22;22752;51.960;5.886;2023-04-24T02:19:03;10.70;99.90
36800;DHT22;22752;51.960;5.886;2023-04-24T02:21:29;10.70;99.90
36800;DHT22;22752;51.960;5.886;2023-04-24T02:23:56;10.70;99.90
36800;DHT22;22752;51.960;5.886;2023-04-24T02:26:22;10.70;99.90
36800;DHT22;22752;51.960;5.886;2023-04-24T02:28:48;10.70;99.90
36800;DHT22;22752;51.960;5.886;2023-04-24T02:31:13;10.70;99.90
36800;DHT22;22752;51.960;5.886;2023-04-24T02:33:39;10.70;99.90
36800;DHT22;22752;51.960;5.886;2023-04-24T02:36:05;10.70;99.90
36800;DHT22;22752;51.960;5.886;2023-04-24T02:38:31;10.70;99.90
36800;DHT22;22752;51.960;5.886;2023-04-24T02:40:56;10.70;99.90
36800;DHT22;22752;51.960;5.886;2023-04-24T02:43:22;10.70;99.90
36800;DHT22;22752;51.960;5.886;2023-04-24T02:45:48;10.60;99.90
36800;DHT22;22752;51.960;5.886;2023-04-24T02:48:14;10.60;99.90
36800;DHT22;22752;51.960;5.886;2023-04-24T02:50:40;10.60;99.90
36800;DHT22;22752;51.960;5.886;2023-04-24T02:53:05;10.60;99.90
36800;DHT22;22752;51.960;5.886;2023-04-24T02:55:31;10.60;99.90
36800;DHT22;22752;51.960;5.886;2023-04-24T02:57:57;10.60;99.90
36800;DHT22;22752;51.960;5.886;2023-04-24T03:00:22;10.60;99.90
36800;DHT22;22752;51.960;5.886;2023-04-24T03:02:48;10.50;99.90
36800;DHT22;22752;51.960;5.886;2023-04-24T03:05:15;10.60;99.90
36800;DHT22;22752;51.960;5.886;2023-04-24T03:07:41;10.50;99.90
36800;DHT22;22752;51.960;5.886;2023-04-24T03:10:07;10.50;99.90
36800;DHT22;22752;51.960;5.886;2023-04-24T03:12:33;10.50;99.90
36800;DHT22;22752;51.960;5.886;2023-04-24T03:14:58;10.50;99.90
36800;DHT22;22752;51.960;5.886;2023-04-24T03:17:24;10.50;99.90
36800;DHT22;22752;51.960;5.886;2023-04-24T03:19:50;10.50;99.90
36800;DHT22;22752;51.960;5.886;2023-04-24T03:22:15;10.50;99.90
36800;DHT22;22752;51.960;5.886;2023-04-24T03:24:41;10.50;99.90
36800;DHT22;22752;51.960;5.886;2023-04-24T03:27:06;10.50;99.90
36800;DHT22;22752;51.960;5.886;2023-04-24T03:29:32;10.50;99.90
36800;DHT22;22752;51.960;5.886;2023-04-24T03:31:58;10.50;99.90
36800;DHT22;22752;51.960;5.886;2023-04-24T03:34:23;10.50;99.90
36800;DHT22;22752;51.960;5.886;2023-04-24T03:36:49;10.50;99.90
36800;DHT22;22752;51.960;5.886;2023-04-24T03:39:15;10.50;99.90
36800;DHT22;22752;51.960;5.886;2023-04-24T03:41:41;10.40;99.90
36800;DHT22;22752;51.960;5.886;2023-04-24T03:44:06;10.50;99.90
36800;DHT22;22752;51.960;5.886;2023-04-24T03:46:32;10.40;99.90
36800;DHT22;22752;51.960;5.886;2023-04-24T03:48:57;10.40;99.90
36800;DHT22;22752;51.960;5.886;2023-04-24T03:51:23;10.30;99.90
36800;DHT22;22752;51.960;5.886;2023-04-24T03:53:49;10.40;99.90
36800;DHT22;22752;51.960;5.886;2023-04-24T03:56:15;10.30;99.90
36800;DHT22;22752;51.960;5.886;2023-04-24T03:58:41;10.30;99.90
36800;DHT22;22752;51.960;5.886;2023-04-24T04:01:06;10.30;99.90
36800;DHT22;22752;51.960;5.886;2023-04-24T04:03:32;10.30;99.90
36800;DHT22;22752;51.960;5.886;2023-04-24T04:05:58;10.20;99.90
36800;DHT22;22752;51.960;5.886;2023-04-24T04:08:24;10.20;99.90
36800;DHT22;22752;51.960;5.886;2023-04-24T04:10:50;10.20;99.90
36800;DHT22;22752;51.960;5.886;2023-04-24T04:13:16;10.20;99.90
36800;DHT22;22752;51.960;5.886;2023-04-24T04:15:42;10.20;99.90
36800;DHT22;22752;51.960;5.886;2023-04-24T04:18:07;10.20;99.90
36800;DHT22;22752;51.960;5.886;2023-04-24T04:20:33;10.20;99.90
36800;DHT22;22752;51.960;5.886;2023-04-24T04:22:59;10.10;99.90
36800;DHT22;22752;51.960;5.886;2023-04-24T04:25:25;10.20;99.90
36800;DHT22;22752;51.960;5.886;2023-04-24T04:27:51;10.10;99.90
36800;DHT22;22752;51.960;5.886;2023-04-24T04:30:17;10.10;99.90
36800;DHT22;22752;51.960;5.886;2023-04-24T04:32:43;10.10;99.90
36800;DHT22;22752;51.960;5.886;2023-04-24T04:35:09;10.10;99.90
36800;DHT22;22752;51.960;5.886;2023-04-24T04:37:35;10.10;99.90
36800;DHT22;22752;51.960;5.886;2023-04-24T04:40:02;10.10;99.90
36800;DHT22;22752;51.960;5.886;2023-04-24T04:42:32;10.10;99.90
36800;DHT22;22752;51.960;5.886;2023-04-24T04:44:59;10.10;99.90
36800;DHT22;22752;51.960;5.886;2023-04-24T04:47:25;10.00;99.90
36800;DHT22;22752;51.960;5.886;2023-04-24T04:49:51;10.00;99.90
36800;DHT22;22752;51.960;5.886;2023-04-24T04:52:18;10.00;99.90
36800;DHT22;22752;51.960;5.886;2023-04-24T04:54:44;10.00;99.90
36800;DHT22;22752;51.960;5.886;2023-04-24T04:57:10;10.00;99.90
36800;DHT22;22752;51.960;5.886;2023-04-24T04:59:36;10.00;99.90
36800;DHT22;22752;51.960;5.886;2023-04-24T05:02:02;10.00;99.90
36800;DHT22;22752;51.960;5.886;2023-04-24T05:04:28;10.00;99.90
36800;DHT22;22752;51.960;5.886;2023-04-24T05:06:53;9.90;99.90
36800;DHT22;22752;51.960;5.886;2023-04-24T05:09:19;10.00;99.90
36800;DHT22;22752;51.960;5.886;2023-04-24T05:11:45;10.00;99.90
36800;DHT22;22752;51.960;5.886;2023-04-24T05:14:10;10.00;99.90
36800;DHT22;22752;51.960;5.886;2023-04-24T05:16:38;9.90;99.90
36800;DHT22;22752;51.960;5.886;2023-04-24T05:19:03;9.90;99.90
36800;DHT22;22752;51.960;5.886;2023-04-24T05:21:29;9.90;99.90
36800;DHT22;22752;51.960;5.886;2023-04-24T05:23:56;9.90;99.90
36800;DHT22;22752;51.960;5.886;2023-04-24T05:26:21;9.90;99.90
36800;DHT22;22752;51.960;5.886;2023-04-24T05:28:48;9.90;99.90
36800;DHT22;22752;51.960;5.886;2023-04-24T05:31:13;9.90;99.90
36800;DHT22;22752;51.960;5.886;2023-04-24T05:33:39;10.00;99.90
36800;DHT22;22752;51.960;5.886;2023-04-24T05:36:06;9.90;99.90
36800;DHT22;22752;51.960;5.886;2023-04-24T05:38:32;10.00;99.90
36800;DHT22;22752;51.960;5.886;2023-04-24T05:40:57;10.00;99.90
36800;DHT22;22752;51.960;5.886;2023-04-24T05:43:23;10.00;99.90
36800;DHT22;22752;51.960;5.886;2023-04-24T05:45:49;10.00;99.90
36800;DHT22;22752;51.960;5.886;2023-04-24T05:48:14;10.00;99.90
36800;DHT22;22752;51.960;5.886;2023-04-24T05:50:40;10.00;99.90
36800;DHT22;22752;51.960;5.886;2023-04-24T05:53:06;10.00;99.90
36800;DHT22;22752;51.960;5.886;2023-04-24T05:55:32;10.00;99.90
36800;DHT22;22752;51.960;5.886;2023-04-24T05:57:58;10.10;99.90
36800;DHT22;22752;51.960;5.886;2023-04-24T06:00:25;10.10;99.90
36800;DHT22;22752;51.960;5.886;2023-04-24T06:02:51;10.20;99.90
36800;DHT22;22752;51.960;5.886;2023-04-24T06:05:18;10.20;99.90
36800;DHT22;22752;51.960;5.886;2023-04-24T06:07:44;10.30;99.90
36800;DHT22;22752;51.960;5.886;2023-04-24T06:10:10;10.40;99.90
36800;DHT22;22752;51.960;5.886;2023-04-24T06:12:35;10.40;99.90
36800;DHT22;22752;51.960;5.886;2023-04-24T06:15:02;10.40;99.90
36800;DHT22;22752;51.960;5.886;2023-04-24T06:17:27;10.40;99.90
36800;DHT22;22752;51.960;5.886;2023-04-24T06:19:53;10.50;99.90
36800;DHT22;22752;51.960;5.886;2023-04-24T06:22:19;10.50;99.90
36800;DHT22;22752;51.960;5.886;2023-04-24T06:24:44;10.50;99.90
36800;DHT22;22752;51.960;5.886;2023-04-24T06:27:10;10.50;99.90
36800;DHT22;22752;51.960;5.886;2023-04-24T06:29:36;10.60;99.90
36800;DHT22;22752;51.960;5.886;2023-04-24T06:32:02;10.60;99.90
36800;DHT22;22752;51.960;5.886;2023-04-24T06:34:27;10.70;99.90
36800;DHT22;22752;51.960;5.886;2023-04-24T06:36:54;10.80;99.90
36800;DHT22;22752;51.960;5.886;2023-04-24T06:39:20;10.80;99.90
36800;DHT22;22752;51.960;5.886;2023-04-24T06:41:46;10.90;99.90
36800;DHT22;22752;51.960;5.886;2023-04-24T06:44:11;10.90;99.90
36800;DHT22;22752;51.960;5.886;2023-04-24T06:46:37;10.90;99.90
36800;DHT22;22752;51.960;5.886;2023-04-24T06:49:02;11.00;99.90
36800;DHT22;22752;51.960;5.886;2023-04-24T06:51:28;11.00;99.90
36800;DHT22;22752;51.960;5.886;2023-04-24T06:53:54;11.00;99.90
36800;DHT22;22752;51.960;5.886;2023-04-24T06:56:22;11.10;99.90
36800;DHT22;22752;51.960;5.886;2023-04-24T06:58:47;11.10;99.90
36800;DHT22;22752;51.960;5.886;2023-04-24T07:01:13;11.10;99.90
36800;DHT22;22752;51.960;5.886;2023-04-24T07:03:39;11.10;99.90
36800;DHT22;22752;51.960;5.886;2023-04-24T07:06:05;11.20;99.90
36800;DHT22;22752;51.960;5.886;2023-04-24T07:08:31;11.20;99.90
36800;DHT22;22752;51.960;5.886;2023-04-24T07:10:58;11.20;99.90
36800;DHT22;22752;51.960;5.886;2023-04-24T07:13:24;11.10;99.90
36800;DHT22;22752;51.960;5.886;2023-04-24T07:15:49;11.10;99.90
36800;DHT22;22752;51.960;5.886;2023-04-24T07:18:20;11.00;99.90
36800;DHT22;22752;51.960;5.886;2023-04-24T07:20:46;10.90;99.90
36800;DHT22;22752;51.960;5.886;2023-04-24T07:23:12;10.80;99.90
36800;DHT22;22752;51.960;5.886;2023-04-24T07:25:38;10.70;99.90
36800;DHT22;22752;51.960;5.886;2023-04-24T07:28:04;10.60;99.90
36800;DHT22;22752;51.960;5.886;2023-04-24T07:30:31;10.60;99.90
36800;DHT22;22752;51.960;5.886;2023-04-24T07:32:58;10.60;99.90
36800;DHT22;22752;51.960;5.886;2023-04-24T07:35:24;10.50;99.90
36800;DHT22;22752;51.960;5.886;2023-04-24T07:37:52;10.50;99.90
36800;DHT22;22752;51.960;5.886;2023-04-24T07:40:18;10.40;99.90
36800;DHT22;22752;51.960;5.886;2023-04-24T07:42:44;10.40;99.90
36800;DHT22;22752;51.960;5.886;2023-04-24T07:45:10;10.30;99.90
36800;DHT22;22752;51.960;5.886;2023-04-24T07:47:35;10.30;99.90
36800;DHT22;22752;51.960;5.886;2023-04-24T07:50:02;10.30;99.90
36800;DHT22;22752;51.960;5.886;2023-04-24T07:52:28;10.20;99.90
36800;DHT22;22752;51.960;5.886;2023-04-24T07:54:54;10.20;99.90
36800;DHT22;22752;51.960;5.886;2023-04-24T07:57:24;10.20;99.90
36800;DHT22;22752;51.960;5.886;2023-04-24T07:59:50;10.10;99.90
36800;DHT22;22752;51.960;5.886;2023-04-24T08:02:16;10.10;99.90
36800;DHT22;22752;51.960;5.886;2023-04-24T08:04:42;10.00;99.90
36800;DHT22;22752;51.960;5.886;2023-04-24T08:07:07;9.90;99.90
36800;DHT22;22752;51.960;5.886;2023-04-24T08:09:33;9.80;99.90
36800;DHT22;22752;51.960;5.886;2023-04-24T08:11:59;9.80;99.90
36800;DHT22;22752;51.960;5.886;2023-04-24T08:14:25;9.70;99.90
36800;DHT22;22752;51.960;5.886;2023-04-24T08:16:51;9.70;99.90
36800;DHT22;22752;51.960;5.886;2023-04-24T08:19:17;9.70;99.90
36800;DHT22;22752;51.960;5.886;2023-04-24T08:21:43;9.60;99.90
36800;DHT22;22752;51.960;5.886;2023-04-24T08:24:08;9.60;99.90
36800;DHT22;22752;51.960;5.886;2023-04-24T08:26:34;9.60;99.90
36800;DHT22;22752;51.960;5.886;2023-04-24T08:29:00;9.70;99.90
36800;DHT22;22752;51.960;5.886;2023-04-24T08:31:26;9.60;99.90
36800;DHT22;22752;51.960;5.886;2023-04-24T08:33:52;9.60;99.90
36800;DHT22;22752;51.960;5.886;2023-04-24T08:36:17;9.60;99.90
36800;DHT22;22752;51.960;5.886;2023-04-24T08:38:43;9.70;99.90
36800;DHT22;22752;51.960;5.886;2023-04-24T08:41:09;9.70;99.90
36800;DHT22;22752;51.960;5.886;2023-04-24T08:43:35;9.70;99.90
36800;DHT22;22752;51.960;5.886;2023-04-24T08:46:04;9.70;99.90
36800;DHT22;22752;51.960;5.886;2023-04-24T08:48:30;9.70;99.90
36800;DHT22;22752;51.960;5.886;2023-04-24T08:50:57;9.70;99.90
36800;DHT22;22752;51.960;5.886;2023-04-24T08:53:24;9.80;99.90
36800;DHT22;22752;51.960;5.886;2023-04-24T08:55:51;9.80;99.90
36800;DHT22;22752;51.960;5.886;2023-04-24T08:58:18;9.80;99.90
36800;DHT22;22752;51.960;5.886;2023-04-24T09:00:45;9.80;99.90
36800;DHT22;22752;51.960;5.886;2023-04-24T09:03:16;9.80;99.90
36800;DHT22;22752;51.960;5.886;2023-04-24T09:05:47;9.70;99.90
36800;DHT22;22752;51.960;5.886;2023-04-24T09:08:16;9.60;99.90
36800;DHT22;22752;51.960;5.886;2023-04-24T09:10:42;9.60;99.90
36800;DHT22;22752;51.960;5.886;2023-04-24T09:13:09;9.60;99.90
36800;DHT22;22752;51.960;5.886;2023-04-24T09:15:37;9.70;99.90
36800;DHT22;22752;51.960;5.886;2023-04-24T09:18:03;9.80;99.90
36800;DHT22;22752;51.960;5.886;2023-04-24T09:20:29;9.90;99.90
36800;DHT22;22752;51.960;5.886;2023-04-24T09:22:56;10.00;99.90
36800;DHT22;22752;51.960;5.886;2023-04-24T09:25:22;10.10;99.90
36800;DHT22;22752;51.960;5.886;2023-04-24T09:27:48;10.10;99.90
36800;DHT22;22752;51.960;5.886;2023-04-24T09:30:21;10.10;99.90
36800;DHT22;22752;51.960;5.886;2023-04-24T09:32:47;10.20;99.90
36800;DHT22;22752;51.960;5.886;2023-04-24T09:35:14;10.40;99.90
36800;DHT22;22752;51.960;5.886;2023-04-24T09:37:46;10.40;99.90
36800;DHT22;22752;51.960;5.886;2023-04-24T09:42:39;10.50;99.90
36800;DHT22;22752;51.960;5.886;2023-04-24T09:45:09;10.50;99.90
36800;DHT22;22752;51.960;5.886;2023-04-24T09:47:37;10.50;99.90
36800;DHT22;22752;51.960;5.886;2023-04-24T09:50:16;10.60;99.90
36800;DHT22;22752;51.960;5.886;2023-04-24T09:52:43;10.60;99.90
36800;DHT22;22752;51.960;5.886;2023-04-24T09:55:19;10.70;99.90
36800;DHT22;22752;51.960;5.886;2023-04-24T09:57:56;10.80;99.90
36800;DHT22;22752;51.960;5.886;2023-04-24T10:00:30;10.90;99.90
36800;DHT22;22752;51.960;5.886;2023-04-24T10:03:01;10.90;99.90
36800;DHT22;22752;51.960;5.886;2023-04-24T10:08:02;10.90;99.90
36800;DHT22;22752;51.960;5.886;2023-04-24T10:10:29;11.00;99.90
36800;DHT22;22752;51.960;5.886;2023-04-24T10:12:55;11.10;99.90
36800;DHT22;22752;51.960;5.886;2023-04-24T10:15:24;11.20;99.90
36800;DHT22;22752;51.960;5.886;2023-04-24T10:17:51;11.50;99.90
36800;DHT22;22752;51.960;5.886;2023-04-24T10:20:23;11.60;99.90
36800;DHT22;22752;51.960;5.886;2023-04-24T10:22:50;11.70;99.90
36800;DHT22;22752;51.960;5.886;2023-04-24T10:25:21;11.80;99.90
36800;DHT22;22752;51.960;5.886;2023-04-24T10:27:48;12.00;99.90
36800;DHT22;22752;51.960;5.886;2023-04-24T10:30:15;12.20;99.90
36800;DHT22;22752;51.960;5.886;2023-04-24T10:32:40;12.40;99.90
36800;DHT22;22752;51.960;5.886;2023-04-24T10:35:11;12.50;99.90
36800;DHT22;22752;51.960;5.886;2023-04-24T10:38:01;12.50;99.90
36800;DHT22;22752;51.960;5.886;2023-04-24T10:40:27;12.70;99.90
36800;DHT22;22752;51.960;5.886;2023-04-24T10:42:56;12.90;99.90
36800;DHT22;22752;51.960;5.886;2023-04-24T10:45:23;13.00;99.90
36800;DHT22;22752;51.960;5.886;2023-04-24T10:50:28;12.70;99.90
36800;DHT22;22752;51.960;5.886;2023-04-24T10:53:06;12.60;99.90
36800;DHT22;22752;51.960;5.886;2023-04-24T10:55:51;12.70;99.90
36800;DHT22;22752;51.960;5.886;2023-04-24T10:58:25;12.70;99.90
36800;DHT22;22752;51.960;5.886;2023-04-24T11:01:00;12.60;99.90
36800;DHT22;22752;51.960;5.886;2023-04-24T11:03:31;12.50;99.90
36800;DHT22;22752;51.960;5.886;2023-04-24T11:06:05;12.50;99.90
36800;DHT22;22752;51.960;5.886;2023-04-24T11:08:42;12.40;99.90
36800;DHT22;22752;51.960;5.886;2023-04-24T11:18:52;11.50;99.90
36800;DHT22;22752;51.960;5.886;2023-04-24T11:21:25;11.50;99.90
36800;DHT22;22752;51.960;5.886;2023-04-24T11:23:51;11.60;99.90
36800;DHT22;22752;51.960;5.886;2023-04-24T11:26:23;11.70;99.90
36800;DHT22;22752;51.960;5.886;2023-04-24T11:29:06;11.90;99.90
36800;DHT22;22752;51.960;5.886;2023-04-24T11:31:37;12.20;99.90
36800;DHT22;22752;51.960;5.886;2023-04-24T11:34:13;12.40;99.90
36800;DHT22;22752;51.960;5.886;2023-04-24T11:36:40;12.40;99.90
36800;DHT22;22752;51.960;5.886;2023-04-24T11:39:07;12.40;99.90
36800;DHT22;22752;51.960;5.886;2023-04-24T11:41:33;12.50;99.90
36800;DHT22;22752;51.960;5.886;2023-04-24T11:44:00;12.50;99.90
36800;DHT22;22752;51.960;5.886;2023-04-24T11:46:30;12.60;99.90
36800;DHT22;22752;51.960;5.886;2023-04-24T11:48:57;12.70;99.90
36800;DHT22;22752;51.960;5.886;2023-04-24T11:51:23;12.70;99.90
36800;DHT22;22752;51.960;5.886;2023-04-24T11:53:51;12.80;99.90
36800;DHT22;22752;51.960;5.886;2023-04-24T11:56:21;12.70;99.90
36800;DHT22;22752;51.960;5.886;2023-04-24T11:58:47;12.60;99.90
36800;DHT22;22752;51.960;5.886;2023-04-24T12:01:13;12.40;99.90
36800;DHT22;22752;51.960;5.886;2023-04-24T12:03:39;12.20;99.90
36800;DHT22;22752;51.960;5.886;2023-04-24T12:06:06;12.10;99.90
36800;DHT22;22752;51.960;5.886;2023-04-24T12:08:36;11.90;99.90
36800;DHT22;22752;51.960;5.886;2023-04-24T12:11:03;11.70;99.90
36800;DHT22;22752;51.960;5.886;2023-04-24T12:13:29;11.60;99.90
36800;DHT22;22752;51.960;5.886;2023-04-24T12:15:57;11.50;99.90
36800;DHT22;22752;51.960;5.886;2023-04-24T12:18:26;11.40;99.90
36800;DHT22;22752;51.960;5.886;2023-04-24T12:20:55;11.40;99.90
36800;DHT22;22752;51.960;5.886;2023-04-24T12:23:37;11.60;99.90
36800;DHT22;22752;51.960;5.886;2023-04-24T12:26:06;11.90;99.90
36800;DHT22;22752;51.960;5.886;2023-04-24T12:28:36;12.00;99.90
36800;DHT22;22752;51.960;5.886;2023-04-24T12:31:03;12.10;99.90
36800;DHT22;22752;51.960;5.886;2023-04-24T12:33:33;12.10;99.90
36800;DHT22;22752;51.960;5.886;2023-04-24T12:36:00;12.20;99.90
36800;DHT22;22752;51.960;5.886;2023-04-24T12:38:27;12.40;99.90
36800;DHT22;22752;51.960;5.886;2023-04-24T12:41:03;12.50;99.90
36800;DHT22;22752;51.960;5.886;2023-04-24T12:43:29;12.70;99.90
36800;DHT22;22752;51.960;5.886;2023-04-24T12:45:55;12.80;99.90
36800;DHT22;22752;51.960;5.886;2023-04-24T12:48:21;12.90;99.90
36800;DHT22;22752;51.960;5.886;2023-04-24T12:50:47;12.90;99.90
36800;DHT22;22752;51.960;5.886;2023-04-24T12:53:14;12.80;99.90
36800;DHT22;22752;51.960;5.886;2023-04-24T12:55:40;12.70;99.90
36800;DHT22;22752;51.960;5.886;2023-04-24T12:58:06;12.50;99.90
36800;DHT22;22752;51.960;5.886;2023-04-24T13:00:32;12.50;99.90
36800;DHT22;22752;51.960;5.886;2023-04-24T13:02:58;12.50;99.90
36800;DHT22;22752;51.960;5.886;2023-04-24T13:05:23;12.40;99.90
36800;DHT22;22752;51.960;5.886;2023-04-24T13:07:49;12.40;99.90
36800;DHT22;22752;51.960;5.886;2023-04-24T13:10:15;12.50;99.90
36800;DHT22;22752;51.960;5.886;2023-04-24T13:12:40;12.70;99.90
36800;DHT22;22752;51.960;5.886;2023-04-24T13:15:07;12.80;99.90
36800;DHT22;22752;51.960;5.886;2023-04-24T13:17:33;12.80;99.90
36800;DHT22;22752;51.960;5.886;2023-04-24T13:19:58;12.80;99.90
36800;DHT22;22752;51.960;5.886;2023-04-24T13:22:24;12.80;99.90
36800;DHT22;22752;51.960;5.886;2023-04-24T13:24:50;12.80;99.90
36800;DHT22;22752;51.960;5.886;2023-04-24T13:27:16;12.80;99.90
36800;DHT22;22752;51.960;5.886;2023-04-24T13:29:42;12.70;99.90
36800;DHT22;22752;51.960;5.886;2023-04-24T13:32:08;12.60;99.90
36800;DHT22;22752;51.960;5.886;2023-04-24T13:34:34;12.40;99.90
36800;DHT22;22752;51.960;5.886;2023-04-24T13:37:00;12.30;99.90
36800;DHT22;22752;51.960;5.886;2023-04-24T13:39:26;12.30;99.90
36800;DHT22;22752;51.960;5.886;2023-04-24T13:41:55;12.20;99.90
36800;DHT22;22752;51.960;5.886;2023-04-24T13:44:22;12.20;99.90
36800;DHT22;22752;51.960;5.886;2023-04-24T13:46:49;12.20;99.90
36800;DHT22;22752;51.960;5.886;2023-04-24T13:49:15;12.30;99.90
36800;DHT22;22752;51.960;5.886;2023-04-24T13:51:42;12.40;99.90
36800;DHT22;22752;51.960;5.886;2023-04-24T13:54:08;12.60;99.90
36800;DHT22;22752;51.960;5.886;2023-04-24T13:56:34;12.50;99.90
36800;DHT22;22752;51.960;5.886;2023-04-24T13:58:59;12.60;99.90
36800;DHT22;22752;51.960;5.886;2023-04-24T14:01:25;12.60;99.90
36800;DHT22;22752;51.960;5.886;2023-04-24T14:03:52;12.80;99.90
36800;DHT22;22752;51.960;5.886;2023-04-24T14:06:19;13.00;99.90
36800;DHT22;22752;51.960;5.886;2023-04-24T14:08:45;13.00;99.90
36800;DHT22;22752;51.960;5.886;2023-04-24T14:11:11;13.20;99.90
36800;DHT22;22752;51.960;5.886;2023-04-24T14:13:37;13.30;99.90
36800;DHT22;22752;51.960;5.886;2023-04-24T14:16:03;13.30;99.90
36800;DHT22;22752;51.960;5.886;2023-04-24T14:18:29;13.30;99.90
36800;DHT22;22752;51.960;5.886;2023-04-24T14:20:55;13.30;99.90
36800;DHT22;22752;51.960;5.886;2023-04-24T14:23:21;13.30;99.90
36800;DHT22;22752;51.960;5.886;2023-04-24T14:25:46;13.20;99.90
36800;DHT22;22752;51.960;5.886;2023-04-24T14:28:16;13.20;99.90
36800;DHT22;22752;51.960;5.886;2023-04-24T14:30:42;13.10;99.90
36800;DHT22;22752;51.960;5.886;2023-04-24T14:33:07;13.10;99.90
36800;DHT22;22752;51.960;5.886;2023-04-24T14:35:33;13.00;99.90
36800;DHT22;22752;51.960;5.886;2023-04-24T14:38:00;12.90;99.90
36800;DHT22;22752;51.960;5.886;2023-04-24T14:40:26;12.90;99.90
36800;DHT22;22752;51.960;5.886;2023-04-24T14:42:52;12.90;99.90
36800;DHT22;22752;51.960;5.886;2023-04-24T14:45:18;12.90;99.90
36800;DHT22;22752;51.960;5.886;2023-04-24T14:47:45;12.90;99.90
36800;DHT22;22752;51.960;5.886;2023-04-24T14:50:11;13.00;99.90
36800;DHT22;22752;51.960;5.886;2023-04-24T14:52:38;13.00;99.90
36800;DHT22;22752;51.960;5.886;2023-04-24T14:55:04;13.00;99.90
36800;DHT22;22752;51.960;5.886;2023-04-24T14:57:30;13.20;99.90
36800;DHT22;22752;51.960;5.886;2023-04-24T14:59:56;13.20;99.90
36800;DHT22;22752;51.960;5.886;2023-04-24T15:02:21;13.30;99.90
36800;DHT22;22752;51.960;5.886;2023-04-24T15:04:47;13.20;99.90
36800;DHT22;22752;51.960;5.886;2023-04-24T15:07:12;13.20;99.90
36800;DHT22;22752;51.960;5.886;2023-04-24T15:09:38;13.10;99.90
36800;DHT22;22752;51.960;5.886;2023-04-24T15:12:04;13.10;99.90
36800;DHT22;22752;51.960;5.886;2023-04-24T15:14:29;13.10;99.90
36800;DHT22;22752;51.960;5.886;2023-04-24T15:16:55;13.10;99.90
36800;DHT22;22752;51.960;5.886;2023-04-24T15:19:21;13.00;99.90
36800;DHT22;22752;51.960;5.886;2023-04-24T15:21:47;12.80;99.90
36800;DHT22;22752;51.960;5.886;2023-04-24T15:24:12;12.80;99.90
36800;DHT22;22752;51.960;5.886;2023-04-24T15:26:38;12.80;99.90
36800;DHT22;22752;51.960;5.886;2023-04-24T15:29:04;12.80;99.90
36800;DHT22;22752;51.960;5.886;2023-04-24T15:31:29;12.80;99.90
36800;DHT22;22752;51.960;5.886;2023-04-24T15:33:55;12.70;99.90
36800;DHT22;22752;51.960;5.886;2023-04-24T15:36:20;12.60;99.90
36800;DHT22;22752;51.960;5.886;2023-04-24T15:38:47;12.60;99.90
36800;DHT22;22752;51.960;5.886;2023-04-24T15:41:12;12.50;99.90
36800;DHT22;22752;51.960;5.886;2023-04-24T15:43:38;12.50;99.90
36800;DHT22;22752;51.960;5.886;2023-04-24T15:46:06;12.50;99.90